Merced Regional Macready Field Merced US
ICAO: KMCE
IATA: MCE
Category: Medium
Scheduled Services: No

Elevation: 155 ft
TransAlt. 18000 ft.

Airport Communications:
NORCAL APP/DEP:120.95
ASOS:132.175
CTAF/UNICOM:122.7

KMCE Zoom In..

Runways:

(A) RW 12 length 5914 ft width 150 ft
---- / hdg 123

(B) RW 30 length 5914 ft width 150 ft
ILS 109.30 / hdg 303

Location; KMCE
Day. 24 / Time. 07.53 Zulu
* Altimeter: 29.95
* Temperature: 14° c. 57.2°f.
* Wind from: 320° Speed 11 kn.
Dewpoint: 09° c.
Visibility: 10 Statute Miles.
Clouds: Clear (automated report).

KMCE 240753Z AUTO 32011KT 10SM CLR 14/09 A2995 RMK AO2 SLP141 T01390094 402780128


Wind From 320°
Speed 11 kn.

 
 
jpsmedia.com for Web Design SOUNDCLOUD worldairports.se 2018   terms of use